Hoskins, Nebraska
Current Conditions -  °F | °C
As of 11:56 AM on Friday 19 Dec 2014 (Local Time) from KOFK Reporting Station
Overcast Overcast  
Wind Chill: 23°   Ceiling: 800
Heat Index: 32°   Visibility: 8mi
Dew Point: 28°   Wind: 12mph
Humidity: 85%   Direction: 190°S
Pressure: 30.13"   Gusts: NA
Location:  42.11°N, 97.31°W
Report Text: KOFK 191756Z AUTO 19010KT 8SM OVC008 00/M02 A3013 RMK AO2 SLP221 T00001022 10000 21017 58006
Loading
Personal Weather Stations






























Interactive Weather Map New forecast layout! Learn more

10-Day Weather Forecast

Advertisements
Track Severe Weather on mobile